Time;durP1;ratioP1;P1;durP2;ratioP2;P2;SDS_P1;SDS_P2;PMS_P1;PMS_P2;Temp;Humidity;BMP_temperature;BMP_pressure;BME280_temperature;BME280_humidity;BME280_pressure;Samples;Min_cycle;Max_cycle;Signal;HPM_P1;HPM_P2
2021/12/12 00:01:38;;;;;;;1999.90;999.90;;;2.90;99.90;;;;;;4997225;28;20046;-67
2021/12/12 00:04:12;;;;;;;1999.90;999.90;;;2.90;99.90;;;;;;4997049;28;20046;-67
2021/12/12 00:06:44;;;;;;;1999.90;999.90;;;3.00;99.90;;;;;;4995839;28;20137;-66
2021/12/12 00:09:18;;;;;;;1999.90;999.90;;;3.00;99.90;;;;;;4996457;28;20050;-66
2021/12/12 00:11:44;;;;;;;1999.90;999.90;;;3.00;99.90;;;;;;4997117;28;20050;-66
2021/12/12 00:14:18;;;;;;;1999.90;999.90;;;3.00;99.90;;;;;;4995839;28;20097;-67
2021/12/12 00:16:45;;;;;;;1999.90;999.90;;;3.00;99.90;;;;;;4996553;28;20050;-66
2021/12/12 00:19:11;;;;;;;1999.90;999.90;;;3.00;99.90;;;;;;4996762;28;20400;-66
2021/12/12 00:21:41;;;;;;;1999.90;999.90;;;3.10;99.90;;;;;;4995732;28;20052;-67
2021/12/12 00:24:11;;;;;;;1999.90;999.90;;;3.10;99.90;;;;;;4996661;28;20046;-66
2021/12/12 00:26:37;;;;;;;1999.90;999.90;;;3.10;99.90;;;;;;4995470;28;20054;-66
2021/12/12 00:29:05;;;;;;;1999.90;999.90;;;3.10;99.90;;;;;;4996340;28;20078;-66
2021/12/12 00:31:32;;;;;;;1999.90;999.90;;;3.00;99.90;;;;;;4996364;28;20122;-66
2021/12/12 00:33:59;;;;;;;1999.90;999.90;;;3.00;99.90;;;;;;4995342;28;20050;-66
2021/12/12 00:36:27;;;;;;;1999.90;999.90;;;3.00;99.90;;;;;;4996337;28;20117;-66
2021/12/12 00:38:58;;;;;;;1999.90;999.90;;;3.10;99.90;;;;;;4996424;28;20521;-65
2021/12/12 00:41:35;;;;;;;1999.90;999.90;;;3.10;99.90;;;;;;4995510;28;20425;-66
2021/12/12 00:44:03;;;;;;;1999.90;999.90;;;3.10;99.90;;;;;;4995842;28;20050;-66
2021/12/12 00:46:29;;;;;;;1999.90;999.90;;;3.00;99.90;;;;;;4996071;28;20531;-67
2021/12/12 00:48:55;;;;;;;1999.90;999.90;;;3.10;99.90;;;;;;4995451;28;20074;-66
2021/12/12 00:51:28;;;;;;;1999.90;999.90;;;3.00;99.90;;;;;;4996004;28;20120;-67
2021/12/12 00:53:55;;;;;;;1999.90;999.90;;;3.00;99.90;;;;;;4976768;28;20051;-66
2021/12/12 00:56:20;;;;;;;1999.90;999.90;;;3.00;99.90;;;;;;4976101;28;20560;-66
2021/12/12 00:58:46;;;;;;;1999.90;999.90;;;3.00;99.90;;;;;;4974912;28;20126;-67
2021/12/12 01:01:18;;;;;;;1999.90;999.90;;;3.10;99.90;;;;;;4983593;28;20077;-67
2021/12/12 01:03:50;;;;;;;1999.90;999.90;;;3.00;99.90;;;;;;4993991;28;20065;-67
2021/12/12 01:06:18;;;;;;;1999.90;999.90;;;3.10;99.90;;;;;;4995619;28;20050;-67
2021/12/12 01:08:46;;;;;;;1999.90;999.90;;;3.10;99.90;;;;;;4995010;28;20046;-67
2021/12/12 01:11:29;;;;;;;1999.90;999.90;;;3.10;99.90;;;;;;4995676;28;20084;-67
2021/12/12 01:13:55;;;;;;;1999.90;999.90;;;3.00;99.90;;;;;;4995733;28;20092;-67
2021/12/12 01:16:26;;;;;;;1999.90;999.90;;;3.00;99.90;;;;;;4995033;28;20042;-66
2021/12/12 01:18:58;;;;;;;1999.90;999.90;;;3.10;99.90;;;;;;4995582;28;20080;-66
2021/12/12 01:21:30;;;;;;;1999.90;999.90;;;3.10;99.90;;;;;;4995590;28;20034;-67
2021/12/12 01:24:01;;;;;;;1999.90;999.90;;;3.00;99.90;;;;;;4994745;28;20136;-67
2021/12/12 01:26:28;;;;;;;1999.90;999.90;;;3.10;99.90;;;;;;4995576;28;20404;-66
2021/12/12 01:28:55;;;;;;;1999.90;999.90;;;3.00;99.90;;;;;;4994695;28;20134;-67
2021/12/12 01:31:28;;;;;;;1999.90;999.90;;;3.10;99.90;;;;;;4977058;28;20125;-66
2021/12/12 01:34:08;;;;;;;1999.90;999.90;;;3.10;99.90;;;;;;5010332;28;20178;-66
2021/12/12 01:36:51;;;;;;;1999.90;999.90;;;3.10;99.90;;;;;;4994872;28;20045;-66
2021/12/12 01:39:22;;;;;;;1999.90;999.90;;;3.10;99.90;;;;;;4977852;28;20090;-67
2021/12/12 01:42:02;;;;;;;1999.90;999.90;;;3.20;99.90;;;;;;4995383;28;20054;-66
2021/12/12 01:44:46;;;;;;;1999.90;999.90;;;3.20;99.90;;;;;;4994396;28;20050;-68
2021/12/12 01:47:14;;;;;;;;;;;3.20;99.90;;;;;;4976331;28;20118;-67
2021/12/12 01:49:44;;;;;;;1999.90;999.90;;;3.20;99.90;;;;;;4975312;28;19976;-67
2021/12/12 01:52:19;;;;;;;1999.90;999.90;;;3.20;99.90;;;;;;4975057;28;20402;-67
2021/12/12 01:54:50;;;;;;;1999.90;999.90;;;3.20;99.90;;;;;;4986802;28;20050;-67
2021/12/12 01:57:21;;;;;;;1999.90;999.90;;;3.20;99.90;;;;;;4994732;28;20054;-67
2021/12/12 01:59:50;;;;;;;1999.90;999.90;;;3.20;99.90;;;;;;4994129;28;20320;-67
2021/12/12 02:02:24;;;;;;;1999.90;999.90;;;3.20;99.90;;;;;;4994611;28;20145;-66
2021/12/12 02:04:55;;;;;;;1999.90;999.90;;;3.20;99.90;;;;;;4994611;28;20113;-67
2021/12/12 02:07:26;;;;;;;1999.90;999.90;;;3.20;99.90;;;;;;4994249;28;20050;-66
2021/12/12 02:09:54;;;;;;;1999.90;999.90;;;3.10;99.90;;;;;;4994151;28;20165;-66
2021/12/12 02:12:23;;;;;;;1999.90;999.90;;;3.20;99.90;;;;;;4982841;28;20066;-66
2021/12/12 02:14:50;;;;;;;1999.90;999.90;;;3.20;99.90;;;;;;4994745;28;20069;-67
2021/12/12 02:17:26;;;;;;;1999.90;999.90;;;3.20;99.90;;;;;;4994685;28;20064;-66
2021/12/12 02:35:53;;;;;;;1999.90;999.90;;;3.20;99.90;;;;;;4976377;28;20052;-67
2021/12/12 02:38:26;;;;;;;1999.90;999.90;;;3.20;99.90;;;;;;4993932;28;20109;-67
2021/12/12 02:40:54;;;;;;;;;;;3.20;99.90;;;;;;4993849;28;20050;-66
2021/12/12 02:43:23;;;;;;;1999.90;999.90;;;3.30;99.90;;;;;;4993575;28;20332;-66
2021/12/12 02:45:53;;;;;;;1999.90;999.90;;;3.30;99.90;;;;;;4994155;28;20081;-66
2021/12/12 02:48:24;;;;;;;1999.90;999.90;;;3.30;99.90;;;;;;4992914;28;20055;-67
2021/12/12 02:50:52;;;;;;;1999.90;999.90;;;3.30;99.90;;;;;;4993675;28;20108;-67
2021/12/12 02:53:26;;;;;;;1999.90;999.90;;;3.30;99.90;;;;;;4994176;28;20432;-66
2021/12/12 02:55:57;;;;;;;1999.90;999.90;;;3.30;99.90;;;;;;5008016;28;20186;-66
2021/12/12 02:58:24;;;;;;;1999.90;999.90;;;3.30;99.90;;;;;;4993850;28;20034;-66
2021/12/12 03:01:02;;;;;;;1999.90;999.90;;;3.30;99.90;;;;;;4993655;28;20047;-66
2021/12/12 03:03:30;;;;;;;1999.90;999.90;;;3.40;99.90;;;;;;4992984;28;20122;-66
2021/12/12 03:05:56;;;;;;;1999.90;999.90;;;3.30;99.90;;;;;;4993122;28;20042;-66
2021/12/12 03:08:22;;;;;;;1999.90;999.90;;;3.40;99.90;;;;;;4992962;28;20401;-66
2021/12/12 03:10:51;;;;;;;1999.90;999.90;;;3.40;99.90;;;;;;4993854;28;20057;-66
2021/12/12 03:13:18;;;;;;;1999.90;999.90;;;3.40;99.90;;;;;;4993220;28;20397;-66
2021/12/12 03:15:46;;;;;;;1999.90;999.90;;;3.40;99.90;;;;;;4992803;28;20567;-66
2021/12/12 03:18:16;;;;;;;1999.90;999.90;;;3.40;99.90;;;;;;5008609;28;20057;-66
2021/12/12 03:20:47;;;;;;;1999.90;999.90;;;3.40;99.90;;;;;;4993585;28;20046;-66
2021/12/12 03:23:23;;;;;;;1999.90;999.90;;;3.40;99.90;;;;;;4991726;28;20054;-65
2021/12/12 03:25:54;;;;;;;1999.90;999.90;;;3.50;99.90;;;;;;4993219;28;20046;-66
2021/12/12 03:28:23;;;;;;;1999.90;999.90;;;3.40;99.90;;;;;;4993187;28;20046;-66
2021/12/12 03:30:52;;;;;;;1999.90;999.90;;;3.50;99.90;;;;;;4992447;28;20049;-66
2021/12/12 03:33:19;;;;;;;1999.90;999.90;;;3.50;99.90;;;;;;4993099;28;20062;-66
2021/12/12 03:35:49;;;;;;;1999.90;999.90;;;3.60;99.90;;;;;;4993648;28;20103;-65
2021/12/12 03:38:16;;;;;;;1999.90;999.90;;;3.60;99.90;;;;;;4992505;28;20457;-65
2021/12/12 03:40:44;;;;;;;1999.90;999.90;;;3.60;99.90;;;;;;5008126;28;20046;-65
2021/12/12 03:43:14;;;;;;;1999.90;999.90;;;3.60;99.90;;;;;;5010562;28;20058;-65
2021/12/12 03:45:42;;;;;;;1999.90;999.90;;;3.60;99.90;;;;;;4992369;28;20492;-65
2021/12/12 03:48:16;;;;;;;1999.90;999.90;;;3.60;99.90;;;;;;4992724;28;20416;-65
2021/12/12 03:50:45;;;;;;;1999.90;999.90;;;3.60;99.90;;;;;;4992342;28;20051;-65
2021/12/12 03:53:11;;;;;;;1999.90;999.90;;;3.60;99.90;;;;;;5008360;28;20104;-65
2021/12/12 03:55:38;;;;;;;1999.90;999.90;;;3.70;99.90;;;;;;4975448;28;20058;-65
2021/12/12 03:58:06;;;;;;;1999.90;999.90;;;3.70;99.90;;;;;;4991882;28;20047;-65
2021/12/12 04:00:37;;;;;;;1999.90;999.90;;;3.70;99.90;;;;;;4993056;28;20058;-64
2021/12/12 04:03:03;;;;;;;1999.90;999.90;;;3.70;99.90;;;;;;4992966;28;20051;-65
2021/12/12 04:05:29;;;;;;;1999.90;999.90;;;3.70;99.90;;;;;;4992464;28;20102;-65
2021/12/12 04:07:56;;;;;;;1999.90;999.90;;;3.80;99.90;;;;;;4992648;28;20053;-64
2021/12/12 04:10:24;;;;;;;1999.90;999.90;;;3.70;99.90;;;;;;4992615;28;20054;-64
2021/12/12 04:12:52;;;;;;;1999.90;999.90;;;3.70;99.90;;;;;;4992409;28;20050;-64
2021/12/12 04:15:19;;;;;;;1999.90;999.90;;;3.70;99.90;;;;;;4992804;28;20057;-64
2021/12/12 04:17:46;;;;;;;1999.90;999.90;;;3.80;99.90;;;;;;4992440;28;20501;-64
2021/12/12 04:20:19;;;;;;;1999.90;999.90;;;3.80;99.90;;;;;;4992319;28;20288;-64
2021/12/12 04:22:45;;;;;;;1999.90;999.90;;;3.80;99.90;;;;;;4993261;28;20058;-64
2021/12/12 04:25:12;;;;;;;1999.90;999.90;;;3.80;99.90;;;;;;4992397;28;20086;-64
2021/12/12 04:27:38;;;;;;;1999.90;999.90;;;3.80;99.90;;;;;;4992142;28;20042;-64
2021/12/12 04:30:06;;;;;;;1999.90;999.90;;;3.80;99.90;;;;;;4992838;28;20547;-64
2021/12/12 04:32:33;;;;;;;1999.90;999.90;;;3.90;99.90;;;;;;4992617;28;20046;-64
2021/12/12 04:35:06;;;;;;;1999.90;999.90;;;3.90;99.90;;;;;;4995183;28;20096;-64
2021/12/12 04:37:32;;;;;;;1999.90;999.90;;;3.90;99.90;;;;;;4996351;28;20054;-63
2021/12/12 04:39:58;;;;;;;1999.90;999.90;;;3.90;99.90;;;;;;4995457;28;20054;-64
2021/12/12 04:42:31;;;;;;;1999.90;999.90;;;3.90;99.90;;;;;;4996343;28;20164;-64
2021/12/12 04:45:29;;;;;;;1999.90;999.90;;;3.90;99.90;;;;;;4976868;28;20125;-64
2021/12/12 04:51:15;;;;;;;1999.90;999.90;;;4.00;99.90;;;;;;4982783;28;20042;-64
2021/12/12 04:53:51;;;;;;;1999.90;999.90;;;4.00;99.90;;;;;;4996407;28;20053;-64
2021/12/12 04:56:20;;;;;;;1999.90;999.90;;;4.00;99.90;;;;;;4995813;28;20053;-64
2021/12/12 04:58:52;;;;;;;1999.90;999.90;;;4.10;99.90;;;;;;4995926;28;20060;-64
2021/12/12 05:01:24;;;;;;;1999.90;999.90;;;4.10;99.90;;;;;;4996499;28;20069;-64
2021/12/12 05:03:56;;;;;;;1999.90;999.90;;;4.10;99.90;;;;;;4995856;28;20117;-64
2021/12/12 05:06:36;;;;;;;1999.90;999.90;;;4.20;99.90;;;;;;4995837;28;20313;-63
2021/12/12 05:09:09;;;;;;;1999.90;999.90;;;4.10;99.90;;;;;;4994666;28;20585;-62
2021/12/12 05:11:39;;;;;;;;;;;4.10;99.90;;;;;;4996183;28;20050;-63
2021/12/12 05:14:11;;;;;;;1999.90;999.90;;;4.10;99.90;;;;;;4996081;28;19939;-62
2021/12/12 05:16:43;;;;;;;1999.90;999.90;;;4.20;99.90;;;;;;4995186;28;20085;-63
2021/12/12 05:19:17;;;;;;;1999.90;999.90;;;4.10;99.90;;;;;;4995526;28;20082;-63
2021/12/12 05:21:50;;;;;;;1999.90;999.90;;;4.20;99.90;;;;;;4995819;28;20105;-62
2021/12/12 05:24:19;;;;;;;1999.90;999.90;;;4.20;99.90;;;;;;4977500;28;20058;-62
2021/12/12 05:26:51;;;;;;;1999.90;999.90;;;4.20;99.90;;;;;;4995332;28;20459;-62
2021/12/12 05:29:27;;;;;;;1999.90;999.90;;;4.20;99.90;;;;;;4977287;28;20059;-63
2021/12/12 05:31:57;;;;;;;1999.90;999.90;;;4.20;99.90;;;;;;4995096;28;20397;-62
2021/12/12 05:34:30;;;;;;;1999.90;999.90;;;4.20;99.90;;;;;;4995643;28;20078;-62
2021/12/12 05:36:58;;;;;;;1999.90;999.90;;;4.20;99.90;;;;;;4993477;28;20109;-63
2021/12/12 05:39:25;;;;;;;1999.90;999.90;;;4.20;99.90;;;;;;4994963;28;20053;-63
2021/12/12 05:41:53;;;;;;;1999.90;999.90;;;4.20;99.90;;;;;;4995529;28;20050;-62
2021/12/12 05:44:20;;;;;;;1999.90;999.90;;;4.20;99.90;;;;;;5001102;28;20052;-62
2021/12/12 05:46:46;;;;;;;1999.90;999.90;;;4.20;99.90;;;;;;4994415;28;20204;-63
2021/12/12 05:49:12;;;;;;;1999.90;999.90;;;4.30;99.90;;;;;;4995102;28;20428;-63
2021/12/12 05:51:38;;;;;;;1999.90;999.90;;;4.30;99.90;;;;;;4994551;28;20054;-63
2021/12/12 05:54:05;;;;;;;1999.90;999.90;;;4.30;99.90;;;;;;4994662;28;20042;-62
2021/12/12 05:56:35;;;;;;;1999.90;999.90;;;4.30;99.90;;;;;;4994921;28;20556;-62
2021/12/12 05:59:02;;;;;;;1999.90;999.90;;;4.30;99.90;;;;;;4993824;28;20524;-62
2021/12/12 06:01:30;;;;;;;1999.90;999.90;;;4.30;99.90;;;;;;4994634;28;20062;-63
2021/12/12 06:03:56;;;;;;;1999.90;999.90;;;4.30;99.90;;;;;;5010163;28;20089;-62
2021/12/12 06:06:26;;;;;;;1999.90;999.90;;;4.30;99.90;;;;;;4993995;28;20472;-63
2021/12/12 06:08:56;;;;;;;1999.90;999.90;;;4.40;99.90;;;;;;4994540;28;20046;-63
2021/12/12 06:11:24;;;;;;;1999.90;999.90;;;4.30;99.90;;;;;;4993667;28;20464;-62
2021/12/12 06:13:50;;;;;;;1999.90;999.90;;;4.30;99.90;;;;;;4994916;28;20134;-63
2021/12/12 06:16:19;;;;;;;1999.90;999.90;;;4.30;99.90;;;;;;4994184;28;20477;-62
2021/12/12 06:18:56;;;;;;;1999.90;999.90;;;4.30;99.90;;;;;;4993645;28;20109;-62
2021/12/12 06:21:22;;;;;;;1999.90;999.90;;;4.40;99.90;;;;;;4958017;28;20055;-62
2021/12/12 06:23:48;;;;;;;1999.90;999.90;;;4.40;99.90;;;;;;4974680;28;20150;-63
2021/12/12 06:26:15;;;;;;;1999.90;999.90;;;4.40;99.90;;;;;;4983055;28;20138;-62
2021/12/12 06:28:41;;;;;;;1999.90;999.90;;;4.40;99.90;;;;;;4994066;28;20054;-64
2021/12/12 06:31:09;;;;;;;1999.90;999.90;;;4.40;99.90;;;;;;4993973;28;20042;-64
2021/12/12 06:33:37;;;;;;;1999.90;999.90;;;4.50;99.90;;;;;;4993491;28;20046;-64
2021/12/12 06:36:06;;;;;;;1999.90;999.90;;;4.50;99.90;;;;;;4994441;28;20498;-63
2021/12/12 06:38:34;;;;;;;1999.90;999.90;;;4.50;99.90;;;;;;4993537;28;20482;-63
2021/12/12 06:41:00;;;;;;;1999.90;999.90;;;4.50;99.90;;;;;;4993594;28;20058;-66
2021/12/12 06:43:26;;;;;;;1999.90;999.90;;;4.60;99.90;;;;;;5001845;28;20050;-66
2021/12/12 06:45:52;;;;;;;1999.90;999.90;;;4.60;99.90;;;;;;5008612;28;20501;-65
2021/12/12 06:48:19;;;;;;;1999.90;999.90;;;4.60;99.90;;;;;;4993319;28;20086;-66
2021/12/12 06:50:49;;;;;;;1999.90;999.90;;;4.60;99.90;;;;;;4993986;28;20081;-66
2021/12/12 06:53:19;;;;;;;1999.90;999.90;;;4.60;99.90;;;;;;4993530;28;20900;-66
2021/12/12 06:55:46;;;;;;;1999.90;999.90;;;4.70;99.90;;;;;;4994157;28;20093;-66
2021/12/12 06:58:14;;;;;;;1999.90;999.90;;;4.70;99.90;;;;;;4993994;28;20469;-66
2021/12/12 07:00:41;;;;;;;1999.90;999.90;;;4.70;99.90;;;;;;4992670;28;20124;-66
2021/12/12 07:03:07;;;;;;;1999.90;999.90;;;4.70;99.90;;;;;;4993531;28;20469;-66
2021/12/12 07:05:35;;;;;;;1999.90;999.90;;;4.70;99.90;;;;;;4976263;28;20051;-66
2021/12/12 07:08:03;;;;;;;1999.90;999.90;;;4.80;99.90;;;;;;4992762;28;20046;-66
2021/12/12 07:10:32;;;;;;;1999.90;999.90;;;4.80;99.90;;;;;;4993762;28;20046;-66
2021/12/12 07:12:58;;;;;;;1999.90;999.90;;;4.80;99.90;;;;;;4993410;28;20516;-66
2021/12/12 07:15:28;;;;;;;1999.90;999.90;;;4.80;99.90;;;;;;4992637;28;20042;-66
2021/12/12 07:17:57;;;;;;;1999.90;999.90;;;4.80;99.90;;;;;;4993741;28;20046;-65
2021/12/12 07:20:24;;;;;;;1999.90;999.90;;;4.80;99.90;;;;;;4993379;28;20105;-66
2021/12/12 07:22:50;;;;;;;1999.90;999.90;;;4.90;99.90;;;;;;5008463;28;20052;-66
2021/12/12 07:25:17;;;;;;;1999.90;999.90;;;4.90;99.90;;;;;;5013213;28;20054;-66
2021/12/12 07:27:43;;;;;;;1999.90;999.90;;;4.90;99.90;;;;;;5011385;28;20484;-66
2021/12/12 07:30:10;;;;;;;1999.90;999.90;;;4.90;99.90;;;;;;4988742;28;20105;-66
2021/12/12 07:32:37;;;;;;;1999.90;999.90;;;4.80;99.90;;;;;;5012137;28;20053;-66
2021/12/12 07:35:08;;;;;;;1999.90;999.90;;;4.80;99.90;;;;;;5012572;28;20073;-66
2021/12/12 07:37:35;;;;;;;1999.90;999.90;;;4.90;99.90;;;;;;4994462;28;20129;-66
2021/12/12 07:40:03;;;;;;;1999.90;999.90;;;4.90;99.90;;;;;;5012324;28;20038;-67
2021/12/12 07:42:30;;;;;;;1999.90;999.90;;;4.90;99.90;;;;;;5013012;28;20408;-67
2021/12/12 07:44:56;;;;;;;1999.90;999.90;;;4.90;99.90;;;;;;4992573;28;20085;-66
2021/12/12 07:47:23;;;;;;;1999.90;999.90;;;5.00;99.90;;;;;;4992907;28;20089;-67
2021/12/12 07:49:50;;;;;;;1999.90;999.90;;;5.00;99.90;;;;;;4992522;28;20121;-66
2021/12/12 07:52:21;;;;;;;1999.90;999.90;;;5.00;99.90;;;;;;4992995;28;20105;-66
2021/12/12 07:54:49;;;;;;;1999.90;999.90;;;5.10;99.90;;;;;;4993406;28;20402;-67
2021/12/12 07:57:15;;;;;;;1999.90;999.90;;;5.10;99.90;;;;;;4992514;28;20058;-66
2021/12/12 07:59:43;;;;;;;1999.90;999.90;;;5.10;99.90;;;;;;4992489;28;20516;-67
2021/12/12 08:02:13;;;;;;;1999.90;999.90;;;5.10;99.90;;;;;;4993335;28;20172;-67
2021/12/12 08:04:40;;;;;;;1999.90;999.90;;;5.10;99.90;;;;;;4992491;28;20181;-66
2021/12/12 08:07:11;;;;;;;1999.90;999.90;;;5.30;99.90;;;;;;4992729;28;20050;-67
2021/12/12 08:09:41;;;;;;;1999.90;999.90;;;5.20;99.90;;;;;;4995954;28;20401;-67
2021/12/12 08:12:12;;;;;;;1999.90;999.90;;;5.20;99.90;;;;;;4975340;28;20486;-66
2021/12/12 08:14:38;;;;;;;1999.90;999.90;;;5.20;99.90;;;;;;4983592;28;20062;-66
2021/12/12 08:17:06;;;;;;;1999.90;999.90;;;5.30;99.90;;;;;;4997022;28;20057;-67
2021/12/12 08:19:32;;;;;;;1999.90;999.90;;;5.60;99.90;;;;;;5011349;28;20054;-67
2021/12/12 08:22:03;;;;;;;1999.90;999.90;;;5.20;99.90;;;;;;4996414;28;20069;-67
2021/12/12 08:24:31;;;;;;;1999.90;999.90;;;5.20;99.90;;;;;;4996596;28;20082;-67
2021/12/12 08:26:57;;;;;;;1999.90;999.90;;;5.20;99.90;;;;;;4995654;28;20034;-67
2021/12/12 08:29:25;;;;;;;1999.90;999.90;;;5.20;99.90;;;;;;4996380;28;20044;-67
2021/12/12 08:31:51;;;;;;;1999.90;999.90;;;5.20;99.90;;;;;;4995571;28;20061;-67
2021/12/12 08:34:17;;;;;;;1999.90;999.90;;;5.20;99.90;;;;;;4996601;28;20042;-67
2021/12/12 08:36:48;;;;;;;1999.90;999.90;;;5.20;99.90;;;;;;4996052;28;20046;-67
2021/12/12 08:39:15;;;;;;;1999.90;999.90;;;5.40;99.90;;;;;;4995643;28;20113;-67
2021/12/12 08:41:43;;;;;;;1999.90;999.90;;;5.30;99.90;;;;;;4996345;28;20420;-67
2021/12/12 08:44:10;;;;;;;1999.90;999.90;;;5.30;99.90;;;;;;5009087;28;20089;-67
2021/12/12 08:46:39;;;;;;;1999.90;999.90;;;5.40;99.90;;;;;;5009979;28;20104;-67
2021/12/12 08:49:05;;;;;;;1999.90;999.90;;;5.40;99.90;;;;;;5015197;28;20041;-67
2021/12/12 08:51:35;;;;;;;1999.90;999.90;;;5.40;99.90;;;;;;4996878;28;20122;-67
2021/12/12 08:54:13;;;;;;;1999.90;999.90;;;5.40;99.90;;;;;;4995303;28;20129;-67
2021/12/12 08:56:46;;;;;;;1999.90;999.90;;;5.50;99.90;;;;;;4996346;28;20129;-67
2021/12/12 08:59:16;;;;;;;;;;;5.50;99.90;;;;;;4996037;28;20050;-67
2021/12/12 09:01:43;;;;;;;1999.90;999.90;;;5.50;99.90;;;;;;4995405;28;19922;-67
2021/12/12 09:04:10;;;;;;;1999.90;999.90;;;5.50;99.90;;;;;;4995949;28;20113;-66
2021/12/12 09:06:42;;;;;;;1999.90;999.90;;;5.60;99.90;;;;;;4995426;28;20404;-67
2021/12/12 09:09:14;;;;;;;1999.90;999.90;;;5.60;99.90;;;;;;4994982;28;20105;-67
2021/12/12 09:11:49;;;;;;;1999.90;999.90;;;5.60;99.90;;;;;;4975387;28;20456;-67
2021/12/12 09:14:30;;;;;;;1999.90;999.90;;;5.70;99.90;;;;;;4987695;28;20050;-67
2021/12/12 09:17:04;;;;;;;1999.90;999.90;;;5.70;99.90;;;;;;4994754;28;20417;-66
2021/12/12 09:19:37;;;;;;;1999.90;999.90;;;5.70;99.90;;;;;;4994923;28;20114;-67
2021/12/12 09:22:14;;;;;;;1999.90;999.90;;;5.70;99.90;;;;;;4994085;28;20050;-67
2021/12/12 09:24:56;;;;;;;1999.90;999.90;;;5.80;99.90;;;;;;5015097;28;20475;-67
2021/12/12 09:27:30;;;;;;;1999.90;999.90;;;5.80;99.90;;;;;;4984390;28;20046;-67
2021/12/12 09:30:00;;;;;;;1999.90;999.90;;;5.80;99.90;;;;;;4994198;28;20042;-67
2021/12/12 09:32:43;;;;;;;1999.90;999.90;;;5.80;99.90;;;;;;4995174;28;20473;-66
2021/12/12 09:35:16;;;;;;;1999.90;999.90;;;5.90;99.90;;;;;;4993679;28;20476;-67
2021/12/12 09:37:47;;;;;;;1999.90;999.90;;;5.90;99.90;;;;;;4993111;28;20453;-66
2021/12/12 09:40:24;;;;;;;1999.90;999.90;;;6.00;99.90;;;;;;4995282;28;20133;-67
2021/12/12 09:43:17;;;;;;;1999.90;999.90;;;6.00;99.90;;;;;;4996330;28;20050;-66
2021/12/12 09:46:18;;;;;;;1999.90;999.90;;;5.90;99.90;;;;;;5012344;28;20049;-66
2021/12/12 09:52:22;;;;;;;1999.90;999.90;;;6.00;99.90;;;;;;4993977;28;20053;-67
2021/12/12 09:54:59;;;;;;;1999.90;999.90;;;6.10;99.90;;;;;;4995126;28;20092;-68
2021/12/12 09:57:36;;;;;;;1999.90;999.90;;;6.10;99.90;;;;;;4994231;28;20390;-67
2021/12/12 10:00:14;;;;;;;1999.90;999.90;;;6.10;99.90;;;;;;4993955;28;20053;-66
2021/12/12 10:03:07;;;;;;;1999.90;999.90;;;6.10;99.90;;;;;;4975484;28;20051;-67
2021/12/12 10:05:56;;;;;;;1999.90;999.90;;;6.10;99.90;;;;;;4974338;28;20121;-67
2021/12/12 10:08:41;;;;;;;1999.90;999.90;;;6.20;99.90;;;;;;4976241;28;20125;-67
2021/12/12 10:11:07;;;;;;;1999.90;999.90;;;6.20;99.90;;;;;;4993317;28;20484;-67
2021/12/12 10:13:45;;;;;;;1999.90;999.90;;;6.30;99.90;;;;;;4994511;28;20047;-68
2021/12/12 10:16:23;;;;;;;1999.90;999.90;;;6.20;99.90;;;;;;4994621;28;20069;-67
2021/12/12 10:18:55;;;;;;;1999.90;999.90;;;6.30;99.90;;;;;;5013717;28;20051;-67
2021/12/12 10:21:36;;;;;;;1999.90;999.90;;;6.40;99.90;;;;;;4995205;28;20061;-67
2021/12/12 10:24:19;;;;;;;1999.90;999.90;;;6.40;99.90;;;;;;5013565;28;20050;-67
2021/12/12 10:26:53;;;;;;;1999.90;999.90;;;6.40;99.90;;;;;;5009836;28;20129;-67
2021/12/12 10:29:26;;;;;;;1999.90;999.90;;;6.40;99.90;;;;;;4994056;28;20070;-67
2021/12/12 10:31:54;;;;;;;;;;;6.50;99.90;;;;;;4993906;28;20125;-67
2021/12/12 10:34:26;;;;;;;1999.90;999.90;;;6.50;99.90;;;;;;4994502;28;19922;-67
2021/12/12 10:37:26;;;;;;;1999.90;999.90;;;6.50;99.90;;;;;;4993776;28;20125;-67
2021/12/12 10:40:06;;;;;;;1999.90;999.90;;;6.50;99.90;;;;;;4993588;28;20569;-67
2021/12/12 10:42:39;;;;;;;1999.90;999.90;;;6.60;99.90;;;;;;5009006;28;20046;-67
2021/12/12 10:45:13;;;;;;;1999.90;999.90;;;6.60;99.90;;;;;;4993876;28;20050;-67
2021/12/12 10:47:48;;;;;;;1999.90;999.90;;;6.70;99.90;;;;;;4993663;28;20085;-67
2021/12/12 10:50:21;;;;;;;1999.90;999.90;;;6.70;99.90;;;;;;4993676;28;20054;-67
2021/12/12 10:52:53;;;;;;;1999.90;999.90;;;6.80;99.90;;;;;;4993406;28;20053;-67
2021/12/12 10:55:28;;;;;;;1999.90;999.90;;;6.80;99.90;;;;;;4993748;28;20109;-67
2021/12/12 10:58:11;;;;;;;1999.90;999.90;;;6.80;99.90;;;;;;4993631;28;20400;-67
2021/12/12 11:00:49;;;;;;;1999.90;999.90;;;6.90;99.90;;;;;;4990474;28;20054;-67
2021/12/12 11:03:23;;;;;;;1999.90;999.90;;;6.90;99.90;;;;;;4992688;28;20044;-67
2021/12/12 11:05:58;;;;;;;1999.90;999.90;;;6.90;99.90;;;;;;4993175;28;20050;-67
2021/12/12 11:08:33;;;;;;;1999.90;999.90;;;7.00;99.90;;;;;;4992805;28;20054;-67
2021/12/12 11:11:01;;;;;;;1999.90;999.90;;;7.00;99.90;;;;;;4993453;28;20050;-67
2021/12/12 11:13:32;;;;;;;1999.90;999.90;;;7.10;99.90;;;;;;4992869;28;20050;-67
2021/12/12 11:16:04;;;;;;;1999.90;999.90;;;7.10;99.90;;;;;;4993082;28;20084;-67
2021/12/12 11:18:39;;;;;;;1999.90;999.90;;;7.10;99.90;;;;;;4993404;28;20134;-67
2021/12/12 11:21:11;;;;;;;1999.90;999.90;;;7.10;99.90;;;;;;4991705;28;20042;-67
2021/12/12 11:23:47;;;;;;;1999.90;999.90;;;7.20;99.90;;;;;;4993433;28;20112;-67
2021/12/12 11:26:19;;;;;;;1999.90;999.90;;;7.20;99.90;;;;;;4997173;28;20065;-67
2021/12/12 11:28:52;;;;;;;1999.90;999.90;;;7.20;99.90;;;;;;4973753;28;20110;-67
2021/12/12 11:31:24;;;;;;;1999.90;999.90;;;7.20;99.90;;;;;;4993468;28;20054;-68
2021/12/12 11:33:52;;;;;;;1999.90;999.90;;;7.30;99.90;;;;;;4993293;28;20485;-67
2021/12/12 11:36:25;;;;;;;1999.90;999.90;;;7.30;99.90;;;;;;4992182;28;20149;-67
2021/12/12 11:39:17;;;;;;;1999.90;999.90;;;7.40;99.90;;;;;;4993214;28;20070;-68
2021/12/12 11:41:56;;;;;;;1999.90;999.90;;;7.40;99.90;;;;;;4992392;28;20100;-67
2021/12/12 11:44:29;;;;;;;1999.90;999.90;;;7.40;99.90;;;;;;4992443;28;20047;-67
2021/12/12 11:47:07;;;;;;;;;;;7.50;99.90;;;;;;4990939;28;20077;-67
2021/12/12 11:49:38;;;;;;;1999.90;999.90;;;7.50;99.90;;;;;;4991717;28;19922;-67
2021/12/12 11:52:09;;;;;;;1999.90;999.90;;;7.50;99.90;;;;;;4993023;28;20046;-68
2021/12/12 11:54:51;;;;;;;1999.90;999.90;;;7.60;99.90;;;;;;4993226;28;20050;-68
2021/12/12 11:57:29;;;;;;;1999.90;999.90;;;7.60;99.90;;;;;;4990921;28;20050;-67
2021/12/12 12:00:15;;;;;;;1999.90;999.90;;;7.70;99.90;;;;;;4999046;28;20057;-68
2021/12/12 12:03:14;;;;;;;1999.90;999.90;;;7.70;99.90;;;;;;5012679;28;20041;-67
2021/12/12 12:05:52;;;;;;;1999.90;999.90;;;7.70;99.90;;;;;;4984310;28;20050;-67
2021/12/12 12:08:41;;;;;;;1999.90;999.90;;;7.80;99.90;;;;;;4990760;28;20050;-67
2021/12/12 12:11:37;;;;;;;1999.90;999.90;;;7.80;99.90;;;;;;4992043;28;20042;-67
2021/12/12 12:14:10;;;;;;;1999.90;999.90;;;7.80;99.90;;;;;;5007454;28;20539;-67
2021/12/12 12:16:48;;;;;;;1999.90;999.90;;;7.80;99.90;;;;;;4992515;28;20493;-67
2021/12/12 12:19:24;;;;;;;1999.90;999.90;;;7.90;99.90;;;;;;4991951;28;20050;-67
2021/12/12 12:22:00;;;;;;;1999.90;999.90;;;7.90;99.90;;;;;;5003192;28;20085;-66
2021/12/12 12:24:41;;;;;;;1999.90;999.90;;;7.90;99.90;;;;;;4991999;28;20050;-67
2021/12/12 12:27:15;;;;;;;1999.90;999.90;;;7.90;99.90;;;;;;4998333;28;20132;-67
2021/12/12 12:30:01;;;;;;;1999.90;999.90;;;8.00;99.90;;;;;;5008495;28;20042;-67
2021/12/12 12:33:18;;;;;;;1999.90;999.90;;;8.00;99.90;;;;;;4988628;28;20085;-67
2021/12/12 12:36:21;;;;;;;1999.90;999.90;;;7.90;99.90;;;;;;5011823;28;20377;-67
2021/12/12 12:39:25;;;;;;;1999.90;999.90;;;7.90;99.90;;;;;;5011517;28;20054;-67
2021/12/12 12:42:45;;;;;;;1999.90;999.90;;;8.00;99.90;;;;;;4973329;28;20058;-67
2021/12/12 12:45:37;;;;;;;1999.90;999.90;;;8.00;99.90;;;;;;4989962;28;20058;-66
2021/12/12 12:48:12;;;;;;;1999.90;999.90;;;8.00;99.90;;;;;;5008006;28;20052;-67
2021/12/12 12:51:02;;;;;;;1999.90;999.90;;;8.10;99.90;;;;;;5011643;28;20057;-67
2021/12/12 12:53:41;;;;;;;1999.90;999.90;;;8.10;99.90;;;;;;5009957;28;20108;-67
2021/12/12 12:56:36;;;;;;;1999.90;999.90;;;;;;;;;;5010184;28;20137;-66
2021/12/12 12:59:43;;;;;;;1999.90;999.90;;;8.20;99.90;;;;;;4999819;28;20054;-67